AirNav   TITAN Aviation Fuels
 
 1134 users online  

56NC Wheat Field Airport
Tryon, North Carolina, USA

GOING TO TRYON?


FAA INFORMATION EFFECTIVE 04 NOVEMBER 2021

Location

FAA Identifier: 56NC
Lat/Long: 35-12-24.0000N 082-01-55.0000W
35-12.400000N 082-01.916667W
35.2066667,-82.0319444
(estimated)
Elevation: 960 ft. / 293 m (estimated)
Variation: 06W (2000)
From city: 12 miles E of TRYON, NC
Time zone: UTC -4 (UTC -5 during Standard Time)
Zip code: 28722

Airport Operations

Airport use: Private use. Permission required prior to landing
Activation date: 01/2001
Control tower: no
ARTCC: ATLANTA CENTER
FSS: RALEIGH FLIGHT SERVICE STATION
Attendance: UNATNDD
Segmented circle: no

Airport Communications

WX AWOS-3 at FQD (14 nm N): 118.275 (828-287-6498)
WX AWOS-3 at SPA (18 nm S): 133.925 (864-587-2529)

Nearby radio navigation aids

VOR radial/distance  VOR name  Freq  Var
SPAr336/11.6SPARTANBURG VORTAC115.7002W
SUGr138/16.7SUGARLOAF MOUNTAIN VORTAC112.2002W

 
NDB name  Hdg/Dist  Freq  Var  ID
FIRST RIVER269/21.441706WSLP ... .-.. .--.
BROAD RIVER107/21.937907WBRA -... .-. .-
FIDDLERS217/35.039107WFIQ ..-. .. --.-
UNION COUNTY335/36.832606WUOT ..- --- -

Airport Services

Runway Information

Runway 9/27

Dimensions: 1500 x 80 ft. / 457 x 24 m
Surface: turf
RUNWAY 9  RUNWAY 27
Traffic pattern: leftleft
Obstructions: 1350 ft. pline, 30 ft. from runway250 ft. trees, 40 ft. from runway

Airport Ownership and Management from official FAA records

Ownership: Privately-owned
Owner: MITCH STOTT
1156 CHESNEE RD
COLUMBUS, NC 28722
Phone 828-817-0412
Manager: MITCH STOTT
1156 CHESNEE RD
COLUMBUS, NC 28722
Phone 828-817-0412

Airport Operational Statistics

Aircraft based on the field: 1
Single engine airplanes: 1
    

Additional Remarks

RCMD ACFT TKOF TO THE WEST, LND FROM THE WEST DUE TO TREES TO EAST.
FOR CD CTC ATLANTA ARTCC AT 770-210-7692.

Instrument Procedures

There are no published instrument procedures at 56NC.

Some nearby airports with instrument procedures:

KFQD - Rutherford County Airport/Marchman Field (14 nm N)
KSPA - Spartanburg Downtown Memorial Airport/Simpson Field (18 nm S)
KGSP - Greenville Spartanburg International Airport (21 nm SW)
KEHO - Shelby-Cleveland County Regional Airport (21 nm E)
KGMU - Greenville Downtown Airport (27 nm SW)
 
Loc | Ops | Rwys | IFR | FBO | Links
Com | Nav | Svcs | Stats | Notes
Area around 56NC (Wheat Field Airport)
 
Road maps at: MapQuest Bing Google
 
Aerial photo
WARNING: Photo may not be current or correct
Aerial photo of 56NC (Wheat Field Airport)
Photo by Joyce Stott
Photo taken 16-Aug-2014
looking east.

Do you have a better or more recent aerial photo of Wheat Field Airport that you would like to share? If so, please send us your photo.

 
Sectional chart

 
Airport distance calculator
Flying to Wheat Field Airport? Find the distance to fly.

From to 56NC

Sunrise and sunset
Times for 27-Nov-2021
 Local
(UTC-5)
 Zulu
(UTC)
Morning civil twilight06:4811:48
Sunrise07:1612:16
Sunset17:1622:16
Evening civil twilight17:4422:44

Current date and time
Zulu (UTC)  28-Nov-2021 02:01:59
Local (UTC-5)  27-Nov-2021 21:01:59
 
METAR
KSPA 
11nm SE 
280155Z AUTO 00000KT 10SM CLR 07/M04 A3001 RMK AO2
KFQD 
13nm N 
280135Z AUTO 15003KT 10SM CLR 07/M04 A3001 RMK AO2
KGSP 
21nm SW 
280153Z 21006KT 10SM CLR 07/M04 A3001 RMK AO2 SLP163 T00721044 $
KEHO 
21nm E 
280135Z AUTO 00000KT 10SM CLR 08/M06 A3001 RMK AO2 T00751057
TAF
KGSP 
21nm SW 
271725Z 2718/2818 21007KT P6SM SKC FM272300 21004KT P6SM SCT200 FM281400 24006KT P6SM BKN200
NOTAMs
Click for the latest NOTAMs
NOTAMs are issued by the DoD/FAA and will open in a separate window not controlled by AirNav.

 

 
 

Would you like to see your business listed on this page?

 If your business provides an interesting product or service to pilots, flight crews, aircraft, or users of the Wheat Field Airport, you should consider listing it here.  To start the listing process, click on the button below
 
Add a business
 

Other Pages about Wheat Field Airport

Update a link
 
Copyright © AirNav, LLC. All rights reserved. Privacy Policy  Contact